sensor_id;sensor_type;location;lat;lon;timestamp;temperature;humidity
22842;DHT22;11587;47.064;15.444;2022-07-30T00:03:22;20.40;99.90
22842;DHT22;11587;47.064;15.444;2022-07-30T00:05:48;20.40;99.90
22842;DHT22;11587;47.064;15.444;2022-07-30T00:08:14;20.40;99.90
22842;DHT22;11587;47.064;15.444;2022-07-30T00:10:40;20.40;99.90
22842;DHT22;11587;47.064;15.444;2022-07-30T00:15:31;20.40;99.90
22842;DHT22;11587;47.064;15.444;2022-07-30T00:17:57;20.40;99.90
22842;DHT22;11587;47.064;15.444;2022-07-30T00:20:23;20.50;99.90
22842;DHT22;11587;47.064;15.444;2022-07-30T00:22:49;20.60;99.90
22842;DHT22;11587;47.064;15.444;2022-07-30T00:27:40;20.60;99.90
22842;DHT22;11587;47.064;15.444;2022-07-30T00:30:06;20.40;99.90
22842;DHT22;11587;47.064;15.444;2022-07-30T00:32:32;20.40;99.90
22842;DHT22;11587;47.064;15.444;2022-07-30T00:34:58;20.40;99.90
22842;DHT22;11587;47.064;15.444;2022-07-30T00:39:49;20.40;99.90
22842;DHT22;11587;47.064;15.444;2022-07-30T00:42:15;20.50;99.90
22842;DHT22;11587;47.064;15.444;2022-07-30T00:44:45;20.50;99.90
22842;DHT22;11587;47.064;15.444;2022-07-30T00:47:11;20.60;99.90
22842;DHT22;11587;47.064;15.444;2022-07-30T00:49:37;20.60;99.90
22842;DHT22;11587;47.064;15.444;2022-07-30T00:56:53;20.70;99.90
22842;DHT22;11587;47.064;15.444;2022-07-30T00:59:19;20.70;99.90
22842;DHT22;11587;47.064;15.444;2022-07-30T01:01:45;20.70;99.90
22842;DHT22;11587;47.064;15.444;2022-07-30T01:09:02;20.60;99.90
22842;DHT22;11587;47.064;15.444;2022-07-30T01:11:35;20.70;99.90
22842;DHT22;11587;47.064;15.444;2022-07-30T01:14:03;20.70;99.90
22842;DHT22;11587;47.064;15.444;2022-07-30T01:16:29;20.70;99.90
22842;DHT22;11587;47.064;15.444;2022-07-30T01:18:57;20.60;99.90
22842;DHT22;11587;47.064;15.444;2022-07-30T01:24:42;20.70;99.90
22842;DHT22;11587;47.064;15.444;2022-07-30T01:27:10;20.70;99.90
22842;DHT22;11587;47.064;15.444;2022-07-30T01:29:38;20.70;99.90
22842;DHT22;11587;47.064;15.444;2022-07-30T01:32:06;20.70;99.90
22842;DHT22;11587;47.064;15.444;2022-07-30T01:34:34;20.60;99.90
22842;DHT22;11587;47.064;15.444;2022-07-30T01:37:04;20.60;99.90
22842;DHT22;11587;47.064;15.444;2022-07-30T01:39:31;20.70;99.90
22842;DHT22;11587;47.064;15.444;2022-07-30T01:41:57;20.70;99.90
22842;DHT22;11587;47.064;15.444;2022-07-30T01:44:25;20.70;99.90
22842;DHT22;11587;47.064;15.444;2022-07-30T01:46:53;20.70;99.90
22842;DHT22;11587;47.064;15.444;2022-07-30T01:49:21;20.80;99.90
22842;DHT22;11587;47.064;15.444;2022-07-30T01:56:40;20.90;99.90
22842;DHT22;11587;47.064;15.444;2022-07-30T01:59:07;20.90;99.90
22842;DHT22;11587;47.064;15.444;2022-07-30T02:01:33;20.90;99.90
22842;DHT22;11587;47.064;15.444;2022-07-30T02:06:33;20.90;99.90
22842;DHT22;11587;47.064;15.444;2022-07-30T02:11:35;20.90;99.90
22842;DHT22;11587;47.064;15.444;2022-07-30T02:14:29;20.80;99.90
22842;DHT22;11587;47.064;15.444;2022-07-30T02:16:59;20.90;99.90
22842;DHT22;11587;47.064;15.444;2022-07-30T02:19:33;20.90;99.90
22842;DHT22;11587;47.064;15.444;2022-07-30T02:22:08;21.00;99.90
22842;DHT22;11587;47.064;15.444;2022-07-30T02:27:11;21.00;99.90
22842;DHT22;11587;47.064;15.444;2022-07-30T02:29:37;21.00;99.90
22842;DHT22;11587;47.064;15.444;2022-07-30T02:32:08;21.00;99.90
22842;DHT22;11587;47.064;15.444;2022-07-30T02:34:37;20.90;99.90
22842;DHT22;11587;47.064;15.444;2022-07-30T02:37:06;20.90;99.90
22842;DHT22;11587;47.064;15.444;2022-07-30T02:39:34;20.90;99.90
22842;DHT22;11587;47.064;15.444;2022-07-30T02:44:27;20.90;99.90
22842;DHT22;11587;47.064;15.444;2022-07-30T02:46:55;20.90;99.90
22842;DHT22;11587;47.064;15.444;2022-07-30T02:49:22;20.90;99.90
22842;DHT22;11587;47.064;15.444;2022-07-30T02:51:49;20.90;99.90
22842;DHT22;11587;47.064;15.444;2022-07-30T02:56:41;20.90;99.90
22842;DHT22;11587;47.064;15.444;2022-07-30T02:59:09;20.80;99.90
22842;DHT22;11587;47.064;15.444;2022-07-30T03:01:36;20.70;99.90
22842;DHT22;11587;47.064;15.444;2022-07-30T03:04:04;20.50;99.90
22842;DHT22;11587;47.064;15.444;2022-07-30T03:08:56;20.40;99.90
22842;DHT22;11587;47.064;15.444;2022-07-30T03:11:23;20.20;99.90
22842;DHT22;11587;47.064;15.444;2022-07-30T03:13:49;19.90;99.90
22842;DHT22;11587;47.064;15.444;2022-07-30T03:16:16;19.80;99.90
22842;DHT22;11587;47.064;15.444;2022-07-30T03:18:44;19.80;99.90
22842;DHT22;11587;47.064;15.444;2022-07-30T03:21:11;19.70;99.90
22842;DHT22;11587;47.064;15.444;2022-07-30T03:26:04;19.70;99.90
22842;DHT22;11587;47.064;15.444;2022-07-30T03:28:34;19.70;99.90
22842;DHT22;11587;47.064;15.444;2022-07-30T03:31:01;19.60;99.90
22842;DHT22;11587;47.064;15.444;2022-07-30T03:33:29;19.70;99.90
22842;DHT22;11587;47.064;15.444;2022-07-30T03:38:21;19.60;99.90
22842;DHT22;11587;47.064;15.444;2022-07-30T03:40:47;19.60;99.90
22842;DHT22;11587;47.064;15.444;2022-07-30T03:43:14;19.60;99.90
22842;DHT22;11587;47.064;15.444;2022-07-30T03:45:42;19.60;99.90
22842;DHT22;11587;47.064;15.444;2022-07-30T03:48:09;19.70;99.90
22842;DHT22;11587;47.064;15.444;2022-07-30T03:50:37;19.60;99.90
22842;DHT22;11587;47.064;15.444;2022-07-30T03:53:05;19.60;99.90
22842;DHT22;11587;47.064;15.444;2022-07-30T03:55:32;19.60;99.90
22842;DHT22;11587;47.064;15.444;2022-07-30T03:58:00;19.70;99.90
22842;DHT22;11587;47.064;15.444;2022-07-30T04:00:26;19.70;99.90
22842;DHT22;11587;47.064;15.444;2022-07-30T04:02:53;19.70;99.90
22842;DHT22;11587;47.064;15.444;2022-07-30T04:05:19;19.80;99.90
22842;DHT22;11587;47.064;15.444;2022-07-30T04:07:45;19.70;99.90
22842;DHT22;11587;47.064;15.444;2022-07-30T04:10:12;19.80;99.90
22842;DHT22;11587;47.064;15.444;2022-07-30T04:12:38;19.70;99.90
22842;DHT22;11587;47.064;15.444;2022-07-30T04:15:04;19.80;99.90
22842;DHT22;11587;47.064;15.444;2022-07-30T04:17:38;19.80;99.90
22842;DHT22;11587;47.064;15.444;2022-07-30T04:20:31;19.70;99.90
22842;DHT22;11587;47.064;15.444;2022-07-30T04:23:00;19.70;99.90
22842;DHT22;11587;47.064;15.444;2022-07-30T04:25:28;19.60;99.90
22842;DHT22;11587;47.064;15.444;2022-07-30T04:27:55;19.60;99.90
22842;DHT22;11587;47.064;15.444;2022-07-30T04:30:21;19.60;99.90
22842;DHT22;11587;47.064;15.444;2022-07-30T04:32:47;19.60;99.90
22842;DHT22;11587;47.064;15.444;2022-07-30T04:35:13;19.70;99.90
22842;DHT22;11587;47.064;15.444;2022-07-30T04:37:39;19.80;99.90
22842;DHT22;11587;47.064;15.444;2022-07-30T04:40:06;19.80;99.90
22842;DHT22;11587;47.064;15.444;2022-07-30T04:42:32;19.70;99.90
22842;DHT22;11587;47.064;15.444;2022-07-30T04:49:50;19.70;99.90
22842;DHT22;11587;47.064;15.444;2022-07-30T04:52:17;19.70;99.90
22842;DHT22;11587;47.064;15.444;2022-07-30T04:54:47;19.80;99.90
22842;DHT22;11587;47.064;15.444;2022-07-30T04:57:15;19.70;99.90
22842;DHT22;11587;47.064;15.444;2022-07-30T04:59:41;19.70;99.90
22842;DHT22;11587;47.064;15.444;2022-07-30T05:02:08;19.70;99.90
22842;DHT22;11587;47.064;15.444;2022-07-30T05:04:35;19.70;99.90
22842;DHT22;11587;47.064;15.444;2022-07-30T05:07:02;19.70;99.90
22842;DHT22;11587;47.064;15.444;2022-07-30T05:09:29;19.70;99.90
22842;DHT22;11587;47.064;15.444;2022-07-30T05:14:22;19.70;99.90
22842;DHT22;11587;47.064;15.444;2022-07-30T05:16:49;19.70;99.90
22842;DHT22;11587;47.064;15.444;2022-07-30T05:19:16;19.80;99.90
22842;DHT22;11587;47.064;15.444;2022-07-30T05:21:42;19.80;99.90
22842;DHT22;11587;47.064;15.444;2022-07-30T05:24:08;19.80;99.90
22842;DHT22;11587;47.064;15.444;2022-07-30T05:26:34;19.80;99.90
22842;DHT22;11587;47.064;15.444;2022-07-30T05:29:00;19.80;99.90
22842;DHT22;11587;47.064;15.444;2022-07-30T05:31:26;19.80;99.90
22842;DHT22;11587;47.064;15.444;2022-07-30T05:33:52;19.70;99.90
22842;DHT22;11587;47.064;15.444;2022-07-30T05:36:19;19.80;99.90
22842;DHT22;11587;47.064;15.444;2022-07-30T05:43:36;19.60;99.90
22842;DHT22;11587;47.064;15.444;2022-07-30T05:46:02;19.70;99.90
22842;DHT22;11587;47.064;15.444;2022-07-30T05:48:28;19.60;99.90
22842;DHT22;11587;47.064;15.444;2022-07-30T05:50:55;19.60;99.90
22842;DHT22;11587;47.064;15.444;2022-07-30T05:53:21;19.60;99.90
22842;DHT22;11587;47.064;15.444;2022-07-30T05:58:13;19.60;99.90
22842;DHT22;11587;47.064;15.444;2022-07-30T06:00:39;19.60;99.90
22842;DHT22;11587;47.064;15.444;2022-07-30T06:03:04;19.50;99.90
22842;DHT22;11587;47.064;15.444;2022-07-30T06:10:21;19.30;99.90
22842;DHT22;11587;47.064;15.444;2022-07-30T06:12:47;19.30;99.90
22842;DHT22;11587;47.064;15.444;2022-07-30T06:15:13;19.30;99.90
22842;DHT22;11587;47.064;15.444;2022-07-30T06:17:44;19.30;99.90
22842;DHT22;11587;47.064;15.444;2022-07-30T06:22:36;19.30;99.90
22842;DHT22;11587;47.064;15.444;2022-07-30T06:25:02;19.30;99.90
22842;DHT22;11587;47.064;15.444;2022-07-30T06:27:28;19.30;99.90
22842;DHT22;11587;47.064;15.444;2022-07-30T06:29:54;19.40;99.90
22842;DHT22;11587;47.064;15.444;2022-07-30T06:34:45;19.40;99.90
22842;DHT22;11587;47.064;15.444;2022-07-30T06:37:11;19.40;99.90
22842;DHT22;11587;47.064;15.444;2022-07-30T06:39:37;19.40;99.90
22842;DHT22;11587;47.064;15.444;2022-07-30T06:42:03;19.40;99.90
22842;DHT22;11587;47.064;15.444;2022-07-30T06:44:29;19.50;99.90
22842;DHT22;11587;47.064;15.444;2022-07-30T06:49:20;19.30;99.90
22842;DHT22;11587;47.064;15.444;2022-07-30T06:51:46;19.40;99.90
22842;DHT22;11587;47.064;15.444;2022-07-30T06:54:12;19.40;99.90
22842;DHT22;11587;47.064;15.444;2022-07-30T06:56:37;19.50;99.90
22842;DHT22;11587;47.064;15.444;2022-07-30T07:03:54;19.50;99.90
22842;DHT22;11587;47.064;15.444;2022-07-30T07:06:20;19.60;99.90
22842;DHT22;11587;47.064;15.444;2022-07-30T07:08:46;19.70;99.90
22842;DHT22;11587;47.064;15.444;2022-07-30T07:13:37;19.70;99.90
22842;DHT22;11587;47.064;15.444;2022-07-30T07:16:03;19.70;99.90
22842;DHT22;11587;47.064;15.444;2022-07-30T07:18:29;19.70;99.90
22842;DHT22;11587;47.064;15.444;2022-07-30T07:20:55;19.70;99.90
22842;DHT22;11587;47.064;15.444;2022-07-30T07:23:22;19.70;99.90
22842;DHT22;11587;47.064;15.444;2022-07-30T07:25:48;19.70;99.90
22842;DHT22;11587;47.064;15.444;2022-07-30T07:28:14;19.80;99.90
22842;DHT22;11587;47.064;15.444;2022-07-30T07:30:41;19.70;99.90
22842;DHT22;11587;47.064;15.444;2022-07-30T07:33:07;19.80;99.90
22842;DHT22;11587;47.064;15.444;2022-07-30T07:35:33;19.80;99.90
22842;DHT22;11587;47.064;15.444;2022-07-30T07:42:50;19.80;99.90
22842;DHT22;11587;47.064;15.444;2022-07-30T07:45:16;20.00;99.90
22842;DHT22;11587;47.064;15.444;2022-07-30T07:47:46;19.70;99.90
22842;DHT22;11587;47.064;15.444;2022-07-30T07:50:15;19.80;99.90
22842;DHT22;11587;47.064;15.444;2022-07-30T07:52:41;19.90;99.90
22842;DHT22;11587;47.064;15.444;2022-07-30T07:55:07;19.90;99.90
22842;DHT22;11587;47.064;15.444;2022-07-30T07:57:44;19.70;99.90
22842;DHT22;11587;47.064;15.444;2022-07-30T08:00:12;19.90;99.90
22842;DHT22;11587;47.064;15.444;2022-07-30T08:02:45;19.80;99.90
22842;DHT22;11587;47.064;15.444;2022-07-30T08:05:12;19.90;99.90
22842;DHT22;11587;47.064;15.444;2022-07-30T08:12:28;20.30;99.90
22842;DHT22;11587;47.064;15.444;2022-07-30T08:14:54;20.30;99.90
22842;DHT22;11587;47.064;15.444;2022-07-30T08:17:20;20.30;99.90
22842;DHT22;11587;47.064;15.444;2022-07-30T08:24:37;20.30;99.90
22842;DHT22;11587;47.064;15.444;2022-07-30T08:27:03;20.40;99.90
22842;DHT22;11587;47.064;15.444;2022-07-30T08:29:29;20.40;99.90
22842;DHT22;11587;47.064;15.444;2022-07-30T08:31:55;20.60;99.90
22842;DHT22;11587;47.064;15.444;2022-07-30T08:34:21;20.70;99.90
22842;DHT22;11587;47.064;15.444;2022-07-30T08:36:47;20.90;99.90
22842;DHT22;11587;47.064;15.444;2022-07-30T08:39:13;21.00;99.90
22842;DHT22;11587;47.064;15.444;2022-07-30T08:41:40;20.60;99.90
22842;DHT22;11587;47.064;15.444;2022-07-30T08:44:10;20.90;99.90
22842;DHT22;11587;47.064;15.444;2022-07-30T08:46:40;21.10;99.90
22842;DHT22;11587;47.064;15.444;2022-07-30T08:49:07;21.00;99.90
22842;DHT22;11587;47.064;15.444;2022-07-30T08:51:34;21.00;99.90
22842;DHT22;11587;47.064;15.444;2022-07-30T08:54:02;21.40;99.90
22842;DHT22;11587;47.064;15.444;2022-07-30T08:56:29;21.50;99.90
22842;DHT22;11587;47.064;15.444;2022-07-30T08:58:55;21.50;99.90
22842;DHT22;11587;47.064;15.444;2022-07-30T09:06:13;21.50;99.90
22842;DHT22;11587;47.064;15.444;2022-07-30T09:08:39;21.40;99.90
22842;DHT22;11587;47.064;15.444;2022-07-30T09:11:05;21.40;99.90
22842;DHT22;11587;47.064;15.444;2022-07-30T09:13:36;21.40;99.90
22842;DHT22;11587;47.064;15.444;2022-07-30T09:18:36;21.00;99.90
22842;DHT22;11587;47.064;15.444;2022-07-30T09:21:17;21.10;99.90
22842;DHT22;11587;47.064;15.444;2022-07-30T09:26:24;21.30;99.90
22842;DHT22;11587;47.064;15.444;2022-07-30T09:28:52;21.40;99.90
22842;DHT22;11587;47.064;15.444;2022-07-30T09:36:11;21.60;99.90
22842;DHT22;11587;47.064;15.444;2022-07-30T09:38:49;21.60;99.90
22842;DHT22;11587;47.064;15.444;2022-07-30T09:41:19;22.10;99.90
22842;DHT22;11587;47.064;15.444;2022-07-30T09:43:50;22.40;99.90
22842;DHT22;11587;47.064;15.444;2022-07-30T09:46:17;22.70;99.90
22842;DHT22;11587;47.064;15.444;2022-07-30T09:51:08;22.20;99.90
22842;DHT22;11587;47.064;15.444;2022-07-30T09:53:34;22.20;99.90
22842;DHT22;11587;47.064;15.444;2022-07-30T09:56:03;22.80;99.90
22842;DHT22;11587;47.064;15.444;2022-07-30T09:58:46;22.60;99.90
22842;DHT22;11587;47.064;15.444;2022-07-30T10:06:04;23.00;99.90
22842;DHT22;11587;47.064;15.444;2022-07-30T10:08:57;22.50;99.90
22842;DHT22;11587;47.064;15.444;2022-07-30T10:11:23;22.50;99.90
22842;DHT22;11587;47.064;15.444;2022-07-30T10:13:54;22.20;99.90
22842;DHT22;11587;47.064;15.444;2022-07-30T10:16:20;22.30;99.90
22842;DHT22;11587;47.064;15.444;2022-07-30T10:18:46;22.40;99.90
22842;DHT22;11587;47.064;15.444;2022-07-30T10:21:13;22.40;99.90
22842;DHT22;11587;47.064;15.444;2022-07-30T10:23:40;22.20;99.90
22842;DHT22;11587;47.064;15.444;2022-07-30T10:26:07;21.80;99.90
22842;DHT22;11587;47.064;15.444;2022-07-30T10:28:33;21.70;99.90
22842;DHT22;11587;47.064;15.444;2022-07-30T10:35:50;23.10;99.90
22842;DHT22;11587;47.064;15.444;2022-07-30T10:38:19;23.00;99.90
22842;DHT22;11587;47.064;15.444;2022-07-30T10:40:59;23.20;99.90
22842;DHT22;11587;47.064;15.444;2022-07-30T10:46:48;23.50;99.90
22842;DHT22;11587;47.064;15.444;2022-07-30T10:49:18;23.00;99.90
22842;DHT22;11587;47.064;15.444;2022-07-30T10:54:41;23.20;99.90
22842;DHT22;11587;47.064;15.444;2022-07-30T11:02:24;22.90;99.90
22842;DHT22;11587;47.064;15.444;2022-07-30T11:07:42;22.60;99.90
22842;DHT22;11587;47.064;15.444;2022-07-30T11:10:38;22.50;99.90
22842;DHT22;11587;47.064;15.444;2022-07-30T11:13:05;22.40;99.90
22842;DHT22;11587;47.064;15.444;2022-07-30T11:18:09;22.20;99.90
22842;DHT22;11587;47.064;15.444;2022-07-30T11:20:36;22.40;99.90
22842;DHT22;11587;47.064;15.444;2022-07-30T11:23:34;22.60;99.90
22842;DHT22;11587;47.064;15.444;2022-07-30T11:26:01;22.40;99.90
22842;DHT22;11587;47.064;15.444;2022-07-30T11:28:44;22.70;99.90
22842;DHT22;11587;47.064;15.444;2022-07-30T11:31:28;22.60;99.90
22842;DHT22;11587;47.064;15.444;2022-07-30T11:38:57;22.40;99.90
22842;DHT22;11587;47.064;15.444;2022-07-30T11:41:24;22.30;99.90
22842;DHT22;11587;47.064;15.444;2022-07-30T11:44:25;22.30;99.90
22842;DHT22;11587;47.064;15.444;2022-07-30T11:46:53;22.20;99.90
22842;DHT22;11587;47.064;15.444;2022-07-30T11:49:19;22.60;99.90
22842;DHT22;11587;47.064;15.444;2022-07-30T11:56:47;22.90;99.90
22842;DHT22;11587;47.064;15.444;2022-07-30T11:59:13;23.40;99.90
22842;DHT22;11587;47.064;15.444;2022-07-30T12:01:39;23.30;99.90
22842;DHT22;11587;47.064;15.444;2022-07-30T12:04:06;23.30;99.90
22842;DHT22;11587;47.064;15.444;2022-07-30T12:11:31;24.00;99.90
22842;DHT22;11587;47.064;15.444;2022-07-30T12:13:59;24.10;99.90
22842;DHT22;11587;47.064;15.444;2022-07-30T12:16:27;24.70;99.90
22842;DHT22;11587;47.064;15.444;2022-07-30T12:18:54;25.30;99.90
22842;DHT22;11587;47.064;15.444;2022-07-30T12:26:22;24.60;99.90
22842;DHT22;11587;47.064;15.444;2022-07-30T12:28:49;25.30;99.90
22842;DHT22;11587;47.064;15.444;2022-07-30T12:31:15;25.30;99.90
22842;DHT22;11587;47.064;15.444;2022-07-30T12:33:45;24.80;99.90
22842;DHT22;11587;47.064;15.444;2022-07-30T12:41:03;25.40;99.90
22842;DHT22;11587;47.064;15.444;2022-07-30T12:43:53;24.70;99.90
22842;DHT22;11587;47.064;15.444;2022-07-30T12:46:22;24.90;99.90
22842;DHT22;11587;47.064;15.444;2022-07-30T12:48:55;24.70;99.90
22842;DHT22;11587;47.064;15.444;2022-07-30T12:51:26;24.70;99.90
22842;DHT22;11587;47.064;15.444;2022-07-30T12:56:24;25.20;99.90
22842;DHT22;11587;47.064;15.444;2022-07-30T12:58:51;25.00;99.90
22842;DHT22;11587;47.064;15.444;2022-07-30T13:01:17;25.50;99.90
22842;DHT22;11587;47.064;15.444;2022-07-30T13:03:43;25.60;99.90
22842;DHT22;11587;47.064;15.444;2022-07-30T13:11:01;26.60;99.90
22842;DHT22;11587;47.064;15.444;2022-07-30T13:13:27;27.30;99.90
22842;DHT22;11587;47.064;15.444;2022-07-30T13:15:57;27.50;99.90
22842;DHT22;11587;47.064;15.444;2022-07-30T13:18:24;28.00;99.90
22842;DHT22;11587;47.064;15.444;2022-07-30T13:20:50;27.50;99.90
22842;DHT22;11587;47.064;15.444;2022-07-30T13:23:16;27.70;99.90
22842;DHT22;11587;47.064;15.444;2022-07-30T13:25:41;27.60;99.90
22842;DHT22;11587;47.064;15.444;2022-07-30T13:28:07;27.30;99.90
22842;DHT22;11587;47.064;15.444;2022-07-30T13:30:34;27.40;99.90
22842;DHT22;11587;47.064;15.444;2022-07-30T13:37:50;32.00;99.90
22842;DHT22;11587;47.064;15.444;2022-07-30T13:40:16;32.80;99.90
22842;DHT22;11587;47.064;15.444;2022-07-30T13:42:42;33.60;99.90
22842;DHT22;11587;47.064;15.444;2022-07-30T13:49:59;33.30;99.90
22842;DHT22;11587;47.064;15.444;2022-07-30T13:52:24;32.70;99.90
22842;DHT22;11587;47.064;15.444;2022-07-30T13:54:50;33.10;99.90
22842;DHT22;11587;47.064;15.444;2022-07-30T13:57:18;33.70;99.90
22842;DHT22;11587;47.064;15.444;2022-07-30T14:02:09;34.10;99.90
22842;DHT22;11587;47.064;15.444;2022-07-30T14:04:35;33.50;99.90
22842;DHT22;11587;47.064;15.444;2022-07-30T14:07:01;34.60;99.90
22842;DHT22;11587;47.064;15.444;2022-07-30T14:09:27;34.30;99.90
22842;DHT22;11587;47.064;15.444;2022-07-30T14:11:53;34.00;99.90
22842;DHT22;11587;47.064;15.444;2022-07-30T14:14:19;34.10;99.90
22842;DHT22;11587;47.064;15.444;2022-07-30T14:16:50;34.10;99.90
22842;DHT22;11587;47.064;15.444;2022-07-30T14:19:17;33.50;99.90
22842;DHT22;11587;47.064;15.444;2022-07-30T14:21:44;33.10;99.90
22842;DHT22;11587;47.064;15.444;2022-07-30T14:24:10;32.20;99.90
22842;DHT22;11587;47.064;15.444;2022-07-30T14:26:38;33.50;99.90
22842;DHT22;11587;47.064;15.444;2022-07-30T14:31:29;34.00;99.90
22842;DHT22;11587;47.064;15.444;2022-07-30T14:33:55;34.20;99.90
22842;DHT22;11587;47.064;15.444;2022-07-30T14:36:21;34.20;99.90
22842;DHT22;11587;47.064;15.444;2022-07-30T14:41:12;34.60;99.90
22842;DHT22;11587;47.064;15.444;2022-07-30T14:43:38;34.10;99.90
22842;DHT22;11587;47.064;15.444;2022-07-30T14:46:04;35.00;99.90
22842;DHT22;11587;47.064;15.444;2022-07-30T14:48:29;33.90;99.90
22842;DHT22;11587;47.064;15.444;2022-07-30T14:50:55;32.50;99.90
22842;DHT22;11587;47.064;15.444;2022-07-30T14:53:21;30.10;99.90
22842;DHT22;11587;47.064;15.444;2022-07-30T14:55:47;29.70;99.90
22842;DHT22;11587;47.064;15.444;2022-07-30T14:58:13;29.00;99.90
22842;DHT22;11587;47.064;15.444;2022-07-30T15:00:39;28.90;99.90
22842;DHT22;11587;47.064;15.444;2022-07-30T15:03:04;28.50;99.90
22842;DHT22;11587;47.064;15.444;2022-07-30T15:05:30;28.10;99.90
22842;DHT22;11587;47.064;15.444;2022-07-30T15:10:22;28.10;99.90
22842;DHT22;11587;47.064;15.444;2022-07-30T15:12:48;27.80;99.90
22842;DHT22;11587;47.064;15.444;2022-07-30T15:15:14;28.00;99.90
22842;DHT22;11587;47.064;15.444;2022-07-30T15:17:39;27.80;99.90
22842;DHT22;11587;47.064;15.444;2022-07-30T15:22:31;28.30;99.90
22842;DHT22;11587;47.064;15.444;2022-07-30T15:24:57;29.00;99.90
22842;DHT22;11587;47.064;15.444;2022-07-30T15:27:22;29.70;99.90
22842;DHT22;11587;47.064;15.444;2022-07-30T15:29:48;30.40;99.90
22842;DHT22;11587;47.064;15.444;2022-07-30T15:34:40;31.70;99.90
22842;DHT22;11587;47.064;15.444;2022-07-30T15:37:06;31.30;99.90
22842;DHT22;11587;47.064;15.444;2022-07-30T15:39:32;31.20;99.90
22842;DHT22;11587;47.064;15.444;2022-07-30T15:42:00;30.60;99.90
22842;DHT22;11587;47.064;15.444;2022-07-30T15:44:26;30.00;99.90
22842;DHT22;11587;47.064;15.444;2022-07-30T15:49:17;29.30;99.90
22842;DHT22;11587;47.064;15.444;2022-07-30T15:51:43;28.90;99.90
22842;DHT22;11587;47.064;15.444;2022-07-30T15:54:14;28.90;99.90
22842;DHT22;11587;47.064;15.444;2022-07-30T15:56:40;28.80;99.90
22842;DHT22;11587;47.064;15.444;2022-07-30T16:03:57;28.40;99.90
22842;DHT22;11587;47.064;15.444;2022-07-30T16:06:23;28.30;99.90
22842;DHT22;11587;47.064;15.444;2022-07-30T16:08:49;27.80;99.90
22842;DHT22;11587;47.064;15.444;2022-07-30T16:13:41;27.50;99.90
22842;DHT22;11587;47.064;15.444;2022-07-30T16:16:07;27.50;99.90
22842;DHT22;11587;47.064;15.444;2022-07-30T16:18:33;27.40;99.90
22842;DHT22;11587;47.064;15.444;2022-07-30T16:20:59;27.30;99.90
22842;DHT22;11587;47.064;15.444;2022-07-30T16:23:26;27.40;99.90
22842;DHT22;11587;47.064;15.444;2022-07-30T16:25:52;27.40;99.90
22842;DHT22;11587;47.064;15.444;2022-07-30T16:28:18;27.10;99.90
22842;DHT22;11587;47.064;15.444;2022-07-30T16:30:44;27.20;99.90
22842;DHT22;11587;47.064;15.444;2022-07-30T16:33:10;26.80;99.90
22842;DHT22;11587;47.064;15.444;2022-07-30T16:35:37;26.70;99.90
22842;DHT22;11587;47.064;15.444;2022-07-30T16:42:54;26.60;99.90
22842;DHT22;11587;47.064;15.444;2022-07-30T16:45:20;26.60;99.90
22842;DHT22;11587;47.064;15.444;2022-07-30T16:47:45;26.50;99.90
22842;DHT22;11587;47.064;15.444;2022-07-30T16:50:15;26.50;99.90
22842;DHT22;11587;47.064;15.444;2022-07-30T16:55:07;26.30;99.90
22842;DHT22;11587;47.064;15.444;2022-07-30T16:57:33;26.30;99.90
22842;DHT22;11587;47.064;15.444;2022-07-30T16:59:59;26.10;99.90
22842;DHT22;11587;47.064;15.444;2022-07-30T17:02:25;25.90;99.90
22842;DHT22;11587;47.064;15.444;2022-07-30T17:04:51;25.80;99.90
22842;DHT22;11587;47.064;15.444;2022-07-30T17:09:42;25.80;99.90
22842;DHT22;11587;47.064;15.444;2022-07-30T17:12:08;25.80;99.90
22842;DHT22;11587;47.064;15.444;2022-07-30T17:14:34;25.60;99.90
22842;DHT22;11587;47.064;15.444;2022-07-30T17:19:26;25.70;99.90
22842;DHT22;11587;47.064;15.444;2022-07-30T17:21:52;25.60;99.90
22842;DHT22;11587;47.064;15.444;2022-07-30T17:24:17;25.40;99.90
22842;DHT22;11587;47.064;15.444;2022-07-30T17:26:43;25.40;99.90
22842;DHT22;11587;47.064;15.444;2022-07-30T17:29:11;25.30;99.90
22842;DHT22;11587;47.064;15.444;2022-07-30T17:34:05;25.30;99.90
22842;DHT22;11587;47.064;15.444;2022-07-30T17:36:35;25.30;99.90
22842;DHT22;11587;47.064;15.444;2022-07-30T17:39:02;25.20;99.90
22842;DHT22;11587;47.064;15.444;2022-07-30T17:41:27;25.20;99.90
22842;DHT22;11587;47.064;15.444;2022-07-30T17:46:19;25.10;99.90
22842;DHT22;11587;47.064;15.444;2022-07-30T17:48:45;25.10;99.90
22842;DHT22;11587;47.064;15.444;2022-07-30T17:51:10;25.00;99.90
22842;DHT22;11587;47.064;15.444;2022-07-30T17:53:36;25.10;99.90
22842;DHT22;11587;47.064;15.444;2022-07-30T17:56:03;24.90;99.90
22842;DHT22;11587;47.064;15.444;2022-07-30T17:58:29;24.90;99.90
22842;DHT22;11587;47.064;15.444;2022-07-30T18:03:20;24.80;99.90
22842;DHT22;11587;47.064;15.444;2022-07-30T18:05:46;24.80;99.90
22842;DHT22;11587;47.064;15.444;2022-07-30T18:08:12;24.70;99.90
22842;DHT22;11587;47.064;15.444;2022-07-30T18:15:28;24.50;99.90
22842;DHT22;11587;47.064;15.444;2022-07-30T18:17:54;24.40;99.90
22842;DHT22;11587;47.064;15.444;2022-07-30T18:20:20;24.30;99.90
22842;DHT22;11587;47.064;15.444;2022-07-30T18:22:46;24.20;99.90
22842;DHT22;11587;47.064;15.444;2022-07-30T18:27:37;23.90;99.90
22842;DHT22;11587;47.064;15.444;2022-07-30T18:30:04;23.80;99.90
22842;DHT22;11587;47.064;15.444;2022-07-30T18:32:29;23.70;99.90
22842;DHT22;11587;47.064;15.444;2022-07-30T18:34:55;23.50;99.90
22842;DHT22;11587;47.064;15.444;2022-07-30T18:37:41;23.40;99.90
22842;DHT22;11587;47.064;15.444;2022-07-30T18:42:34;23.10;99.90
22842;DHT22;11587;47.064;15.444;2022-07-30T18:45:00;23.10;99.90
22842;DHT22;11587;47.064;15.444;2022-07-30T18:47:26;22.90;99.90
22842;DHT22;11587;47.064;15.444;2022-07-30T18:57:08;22.70;99.90
22842;DHT22;11587;47.064;15.444;2022-07-30T18:59:34;22.50;99.90
22842;DHT22;11587;47.064;15.444;2022-07-30T19:02:00;22.40;99.90
22842;DHT22;11587;47.064;15.444;2022-07-30T19:06:53;22.40;99.90
22842;DHT22;11587;47.064;15.444;2022-07-30T19:09:19;22.30;99.90
22842;DHT22;11587;47.064;15.444;2022-07-30T19:11:45;22.30;99.90
22842;DHT22;11587;47.064;15.444;2022-07-30T19:14:12;22.30;99.90
22842;DHT22;11587;47.064;15.444;2022-07-30T19:16:39;22.30;99.90
22842;DHT22;11587;47.064;15.444;2022-07-30T19:19:06;22.20;99.90
22842;DHT22;11587;47.064;15.444;2022-07-30T19:23:58;22.10;99.90